createdAt,value
2023-05-20T00:00:18.481Z,22.17
2023-05-20T00:01:18.487Z,22.16
2023-05-20T00:02:18.544Z,22.18
2023-05-20T00:03:18.559Z,22.16
2023-05-20T00:04:18.745Z,22.17
2023-05-20T00:05:18.573Z,22.17
2023-05-20T00:06:18.580Z,22.16
2023-05-20T00:07:18.598Z,22.16
2023-05-20T00:08:18.625Z,22.16
2023-05-20T00:09:18.644Z,22.16
2023-05-20T00:10:18.655Z,22.17
2023-05-20T00:11:18.696Z,22.16
2023-05-20T00:12:18.688Z,22.15
2023-05-20T00:13:18.691Z,22.15
2023-05-20T00:14:18.727Z,22.16
2023-05-20T00:15:18.727Z,22.14
2023-05-20T00:16:18.777Z,22.15
2023-05-20T00:17:18.761Z,22.15
2023-05-20T00:18:18.780Z,22.14
2023-05-20T00:19:18.842Z,22.14
2023-05-20T00:20:18.811Z,22.14
2023-05-20T00:21:18.833Z,22.15
2023-05-20T00:22:18.824Z,22.14
2023-05-20T00:23:18.841Z,22.14
2023-05-20T00:24:18.860Z,22.14
2023-05-20T00:25:18.891Z,22.14
2023-05-20T00:26:18.904Z,22.13
2023-05-20T00:27:18.907Z,22.13
2023-05-20T00:28:18.928Z,22.13
2023-05-20T00:29:18.964Z,22.12
2023-05-20T00:30:18.959Z,22.13
2023-05-20T00:31:18.993Z,22.13
2023-05-20T00:32:19.058Z,22.13
2023-05-20T00:33:19.125Z,22.12
2023-05-20T00:34:19.027Z,22.13
2023-05-20T00:35:19.067Z,22.12
2023-05-20T00:36:19.082Z,22.12
2023-05-20T00:37:19.100Z,22.11
2023-05-20T00:38:19.108Z,22.12
2023-05-20T00:39:19.134Z,22.11
2023-05-20T00:40:19.153Z,22.11
2023-05-20T00:41:19.165Z,22.11
2023-05-20T00:42:19.196Z,22.11
2023-05-20T00:43:19.205Z,22.11
2023-05-20T00:44:19.238Z,22.11
2023-05-20T00:45:19.230Z,22.10
2023-05-20T00:46:19.273Z,22.11
2023-05-20T00:47:19.263Z,22.10
2023-05-20T00:48:19.286Z,22.11
2023-05-20T00:49:19.310Z,22.11
2023-05-20T00:50:19.326Z,22.11
2023-05-20T00:51:19.357Z,22.10
2023-05-20T00:52:19.357Z,22.09
2023-05-20T00:53:19.396Z,22.09
2023-05-20T00:54:19.404Z,22.10
2023-05-20T00:55:19.429Z,22.10
2023-05-20T00:56:19.448Z,22.10
2023-05-20T00:57:19.482Z,22.09
2023-05-20T00:58:19.521Z,22.09
2023-05-20T00:59:19.532Z,22.09
2023-05-20T01:00:19.540Z,22.09
2023-05-20T01:01:19.624Z,22.09
2023-05-20T01:02:19.632Z,22.09
2023-05-20T01:03:19.679Z,22.09
2023-05-20T01:04:19.647Z,22.09
2023-05-20T01:05:19.657Z,22.09
2023-05-20T01:06:19.690Z,22.09
2023-05-20T01:07:19.736Z,22.10
2023-05-20T01:08:19.734Z,22.09
2023-05-20T01:09:19.760Z,22.09
2023-05-20T01:10:19.778Z,22.09
2023-05-20T01:11:19.798Z,22.09
2023-05-20T01:12:19.838Z,22.08
2023-05-20T01:13:19.874Z,22.08
2023-05-20T01:14:19.877Z,22.08
2023-05-20T01:15:19.915Z,22.08
2023-05-20T01:16:19.982Z,22.07
2023-05-20T01:17:19.966Z,22.07
2023-05-20T01:18:19.999Z,22.07
2023-05-20T01:19:20.082Z,22.08
2023-05-20T01:20:20.063Z,22.07
2023-05-20T01:21:20.090Z,22.07
2023-05-20T01:22:20.094Z,22.06
2023-05-20T01:23:20.129Z,22.07
2023-05-20T01:24:20.162Z,22.06
2023-05-20T01:25:20.183Z,22.06
2023-05-20T01:26:20.193Z,22.06
2023-05-20T01:27:20.224Z,22.05
2023-05-20T01:28:20.254Z,22.06
2023-05-20T01:29:20.275Z,22.05
2023-05-20T01:30:20.294Z,22.05
2023-05-20T01:31:20.366Z,22.05
2023-05-20T01:32:20.343Z,22.05
2023-05-20T01:33:20.368Z,22.04
2023-05-20T01:34:20.413Z,22.05
2023-05-20T01:35:20.430Z,22.04
2023-05-20T01:36:20.457Z,22.04
2023-05-20T01:37:20.464Z,22.05
2023-05-20T01:38:20.509Z,22.04
2023-05-20T01:39:20.523Z,22.04
2023-05-20T01:40:20.559Z,22.03
2023-05-20T01:41:20.551Z,22.03
2023-05-20T01:42:20.589Z,22.03
2023-05-20T01:43:20.605Z,22.04
2023-05-20T01:44:20.641Z,22.03
2023-05-20T01:45:20.660Z,22.05
2023-05-20T01:46:20.707Z,22.04
2023-05-20T01:47:20.708Z,22.03
2023-05-20T01:48:20.779Z,22.03
2023-05-20T01:49:20.756Z,22.02
2023-05-20T01:50:20.786Z,22.03
2023-05-20T01:51:20.792Z,22.03
2023-05-20T01:52:20.836Z,22.03
2023-05-20T01:53:20.850Z,22.03
2023-05-20T01:54:20.897Z,22.02
2023-05-20T01:55:20.907Z,22.03
2023-05-20T01:56:20.932Z,22.02
2023-05-20T01:57:20.959Z,22.03
2023-05-20T01:58:20.964Z,22.02
2023-05-20T01:59:20.996Z,22.02
2023-05-20T02:00:21.029Z,22.03
2023-05-20T02:01:21.130Z,22.02
2023-05-20T02:02:21.095Z,22.02
2023-05-20T02:03:21.140Z,22.02
2023-05-20T02:04:21.099Z,22.01
2023-05-20T02:05:21.170Z,22.01
2023-05-20T02:06:21.185Z,22.00
2023-05-20T02:07:21.176Z,22.01
2023-05-20T02:08:21.201Z,22.00
2023-05-20T02:09:21.221Z,22.00
2023-05-20T02:10:21.256Z,22.01
2023-05-20T02:11:21.277Z,22.00
2023-05-20T02:12:21.299Z,22.01
2023-05-20T02:13:21.320Z,22.01
2023-05-20T02:14:21.345Z,22.00
2023-05-20T02:15:21.376Z,22.01
2023-05-20T02:16:21.409Z,22.01
2023-05-20T02:17:21.416Z,22.01
2023-05-20T02:18:21.464Z,22.01
2023-05-20T02:19:21.501Z,22.01
2023-05-20T02:20:21.505Z,22.01
2023-05-20T02:21:21.547Z,22.00
2023-05-20T02:22:21.586Z,22.00
2023-05-20T02:23:21.612Z,22.00
2023-05-20T02:24:21.670Z,22.01
2023-05-20T02:25:21.678Z,22.00
2023-05-20T02:26:21.705Z,22.00
2023-05-20T02:27:21.733Z,22.00
2023-05-20T02:28:21.769Z,22.00
2023-05-20T02:29:21.776Z,21.99
2023-05-20T02:30:21.816Z,21.99
2023-05-20T02:31:21.831Z,21.99
2023-05-20T02:32:21.862Z,21.98
2023-05-20T02:33:21.924Z,21.98
2023-05-20T02:34:21.986Z,21.99
2023-05-20T02:35:21.956Z,21.99
2023-05-20T02:36:21.973Z,21.99
2023-05-20T02:37:21.996Z,21.99
2023-05-20T02:38:22.043Z,21.99
2023-05-20T02:39:22.053Z,21.99
2023-05-20T02:40:22.097Z,21.99
2023-05-20T02:41:22.128Z,21.99
2023-05-20T02:42:22.146Z,21.98
2023-05-20T02:43:22.185Z,21.99
2023-05-20T02:44:22.200Z,21.98
2023-05-20T02:45:22.229Z,21.99
2023-05-20T02:46:22.368Z,21.99
2023-05-20T02:47:22.330Z,21.98
2023-05-20T02:48:22.339Z,21.98
2023-05-20T02:49:22.358Z,21.98
2023-05-20T02:50:22.360Z,21.97
2023-05-20T02:51:22.390Z,21.97
2023-05-20T02:52:22.428Z,21.97
2023-05-20T02:53:22.452Z,21.98
2023-05-20T02:54:22.486Z,21.97
2023-05-20T02:55:22.523Z,21.97
2023-05-20T02:56:22.541Z,21.97
2023-05-20T02:57:22.579Z,21.97
2023-05-20T02:58:22.613Z,21.96
2023-05-20T02:59:22.648Z,21.96
2023-05-20T03:00:22.672Z,21.96
2023-05-20T03:01:22.724Z,21.97
2023-05-20T03:02:22.774Z,21.97
2023-05-20T03:03:22.793Z,21.97
2023-05-20T03:04:22.817Z,21.96
2023-05-20T03:05:22.880Z,21.96
2023-05-20T03:06:22.896Z,21.96
2023-05-20T03:07:22.910Z,21.96
2023-05-20T03:08:22.952Z,21.96
2023-05-20T03:09:22.955Z,21.96
2023-05-20T03:10:23.008Z,21.96
2023-05-20T03:11:23.031Z,21.97
2023-05-20T03:12:23.076Z,21.96
2023-05-20T03:13:23.104Z,21.96
2023-05-20T03:14:23.120Z,21.96
2023-05-20T03:15:23.171Z,21.95
2023-05-20T03:16:23.273Z,21.95
2023-05-20T03:17:23.247Z,21.95
2023-05-20T03:18:23.256Z,21.95
2023-05-20T03:19:23.404Z,21.95
2023-05-20T03:20:23.331Z,21.95
2023-05-20T03:21:23.358Z,21.95
2023-05-20T03:22:23.402Z,21.95
2023-05-20T03:23:23.425Z,21.95
2023-05-20T03:24:23.479Z,21.95
2023-05-20T03:25:23.493Z,21.95
2023-05-20T03:26:23.573Z,21.94
2023-05-20T03:27:23.552Z,21.96
2023-05-20T03:28:23.604Z,21.95
2023-05-20T03:29:23.640Z,21.96
2023-05-20T03:30:23.672Z,21.96
2023-05-20T03:31:23.759Z,21.96
2023-05-20T03:32:23.783Z,21.95
2023-05-20T03:33:23.744Z,21.95
2023-05-20T03:34:23.782Z,21.95
2023-05-20T03:35:23.815Z,21.95
2023-05-20T03:36:23.844Z,21.95
2023-05-20T03:37:23.902Z,21.95
2023-05-20T03:38:23.928Z,21.94
2023-05-20T03:39:23.957Z,21.94
2023-05-20T03:40:23.989Z,21.95
2023-05-20T03:41:24.024Z,21.94
2023-05-20T03:42:24.040Z,21.94
2023-05-20T03:43:24.097Z,21.94
2023-05-20T03:44:24.133Z,21.94
2023-05-20T03:45:24.159Z,21.94
2023-05-20T03:46:24.215Z,21.93
2023-05-20T03:47:24.265Z,21.94
2023-05-20T03:48:24.264Z,21.94
2023-05-20T03:49:24.300Z,21.94
2023-05-20T03:50:24.324Z,21.94
2023-05-20T03:51:24.359Z,21.95
2023-05-20T03:52:24.389Z,21.95
2023-05-20T03:53:24.441Z,21.94
2023-05-20T03:54:24.478Z,21.94
2023-05-20T03:55:24.505Z,21.94
2023-05-20T03:56:24.538Z,21.94
2023-05-20T03:57:24.575Z,21.94
2023-05-20T03:58:24.607Z,21.94
2023-05-20T03:59:24.657Z,21.94
2023-05-20T04:00:24.687Z,21.94
2023-05-20T04:01:24.705Z,21.95
2023-05-20T04:02:24.834Z,21.94
2023-05-20T04:03:24.874Z,21.94
2023-05-20T04:04:24.921Z,21.95
2023-05-20T04:05:24.840Z,21.94
2023-05-20T04:06:24.878Z,21.95
2023-05-20T04:07:24.923Z,21.95
2023-05-20T04:08:24.970Z,21.95
2023-05-20T04:09:25.002Z,21.95
2023-05-20T04:10:24.998Z,21.95
2023-05-20T04:11:25.014Z,21.95
2023-05-20T04:12:25.041Z,21.95
2023-05-20T04:13:25.093Z,21.95
2023-05-20T04:14:25.138Z,21.94
2023-05-20T04:15:25.259Z,21.95
2023-05-20T04:16:25.232Z,21.95
2023-05-20T04:17:25.249Z,21.96
2023-05-20T04:18:25.250Z,21.95
2023-05-20T04:19:25.356Z,21.95
2023-05-20T04:20:25.352Z,21.96
2023-05-20T04:21:25.355Z,21.96
2023-05-20T04:22:25.391Z,21.96
2023-05-20T04:23:25.446Z,21.97
2023-05-20T04:24:25.453Z,21.97
2023-05-20T04:25:25.509Z,21.97
2023-05-20T04:26:25.531Z,21.97
2023-05-20T04:27:25.578Z,21.98
2023-05-20T04:28:25.591Z,21.97
2023-05-20T04:29:25.643Z,21.98
2023-05-20T04:30:25.695Z,21.98
2023-05-20T04:31:25.724Z,21.98
2023-05-20T04:32:25.786Z,21.98
2023-05-20T04:33:25.777Z,21.98
2023-05-20T04:34:25.791Z,21.98
2023-05-20T04:35:25.886Z,21.98
2023-05-20T04:36:25.845Z,21.99
2023-05-20T04:37:25.887Z,21.98
2023-05-20T04:38:28.179Z,21.99
2023-05-20T04:39:25.932Z,21.99
2023-05-20T04:40:25.909Z,22.01
2023-05-20T04:41:25.896Z,22.00
2023-05-20T04:42:25.921Z,22.01
2023-05-20T04:43:25.926Z,22.01
2023-05-20T04:44:25.876Z,22.01
2023-05-20T04:45:25.893Z,22.02
2023-05-20T04:46:25.906Z,22.01
2023-05-20T04:47:25.996Z,22.02
2023-05-20T04:48:25.866Z,22.03
2023-05-20T04:49:25.870Z,22.02
2023-05-20T04:50:25.851Z,22.03
2023-05-20T04:51:25.852Z,22.02
2023-05-20T04:52:25.842Z,22.04
2023-05-20T04:53:25.832Z,22.04
2023-05-20T04:54:25.825Z,22.04
2023-05-20T04:55:25.822Z,22.04
2023-05-20T04:56:25.830Z,22.05
2023-05-20T04:57:25.835Z,22.06
2023-05-20T04:58:25.811Z,22.07
2023-05-20T04:59:25.822Z,22.07
2023-05-20T05:00:25.817Z,22.09
2023-05-20T05:01:25.824Z,22.09
2023-05-20T05:02:25.817Z,22.10
2023-05-20T05:03:25.823Z,22.12
2023-05-20T05:04:25.793Z,22.13
2023-05-20T05:05:25.775Z,22.14
2023-05-20T05:06:25.756Z,22.15
2023-05-20T05:07:25.772Z,22.16
2023-05-20T05:08:25.770Z,22.16
2023-05-20T05:09:25.735Z,22.17
2023-05-20T05:10:25.766Z,22.19
2023-05-20T05:11:25.721Z,22.21
2023-05-20T05:12:25.703Z,22.23
2023-05-20T05:13:25.708Z,22.24
2023-05-20T05:14:25.729Z,22.26
2023-05-20T05:15:25.702Z,22.28
2023-05-20T05:16:25.833Z,22.29
2023-05-20T05:17:25.723Z,22.30
2023-05-20T05:18:25.684Z,22.31
2023-05-20T05:19:25.707Z,22.32
2023-05-20T05:20:25.668Z,22.33
2023-05-20T05:21:25.663Z,22.33
2023-05-20T05:22:25.719Z,22.34
2023-05-20T05:23:25.695Z,22.36
2023-05-20T05:24:25.649Z,22.37
2023-05-20T05:25:25.628Z,22.39
2023-05-20T05:26:25.642Z,22.41
2023-05-20T05:27:25.627Z,22.42
2023-05-20T05:28:25.672Z,22.43
2023-05-20T05:29:25.601Z,22.44
2023-05-20T05:30:25.613Z,22.45
2023-05-20T05:31:25.603Z,22.46
2023-05-20T05:32:25.738Z,22.47
2023-05-20T05:33:25.604Z,22.48
2023-05-20T05:34:25.578Z,22.48
2023-05-20T05:35:25.571Z,22.50
2023-05-20T05:36:25.558Z,22.51
2023-05-20T05:37:25.560Z,22.51
2023-05-20T05:38:25.540Z,22.53
2023-05-20T05:39:25.551Z,22.54
2023-05-20T05:40:25.523Z,22.56
2023-05-20T05:41:25.529Z,22.57
2023-05-20T05:42:25.526Z,22.58
2023-05-20T05:43:25.519Z,22.61
2023-05-20T05:44:25.493Z,22.62
2023-05-20T05:45:25.507Z,22.63
2023-05-20T05:46:25.580Z,22.64
2023-05-20T05:47:25.497Z,22.65
2023-05-20T05:48:25.480Z,22.67
2023-05-20T05:49:25.477Z,22.69
2023-05-20T05:50:25.467Z,22.70
2023-05-20T05:51:25.520Z,22.72
2023-05-20T05:52:25.594Z,22.74
2023-05-20T05:53:25.657Z,22.75
2023-05-20T05:54:25.710Z,22.76
2023-05-20T05:55:25.750Z,22.78
2023-05-20T05:56:25.827Z,22.79
2023-05-20T05:57:25.922Z,22.82
2023-05-20T05:58:25.973Z,22.83
2023-05-20T05:59:26.031Z,22.86
2023-05-20T06:00:26.049Z,22.87
2023-05-20T06:01:26.129Z,22.88
2023-05-20T06:02:26.236Z,22.89
2023-05-20T06:03:26.269Z,22.91
2023-05-20T06:04:26.373Z,22.92
2023-05-20T06:05:28.889Z,22.94
2023-05-20T06:06:26.280Z,22.95
2023-05-20T06:07:26.292Z,22.96
2023-05-20T06:08:26.285Z,22.98
2023-05-20T06:09:26.270Z,22.99
2023-05-20T06:10:26.260Z,23.00
2023-05-20T06:11:26.241Z,23.03
2023-05-20T06:12:26.232Z,23.04
2023-05-20T06:13:26.253Z,23.05
2023-05-20T06:14:26.237Z,23.07
2023-05-20T06:15:26.237Z,23.09
2023-05-20T06:16:26.259Z,23.10
2023-05-20T06:17:26.237Z,23.12
2023-05-20T06:18:26.216Z,23.13
2023-05-20T06:19:26.205Z,23.15
2023-05-20T06:20:26.184Z,23.16
2023-05-20T06:21:26.191Z,23.17
2023-05-20T06:22:26.185Z,23.18
2023-05-20T06:23:26.180Z,23.19
2023-05-20T06:24:26.173Z,23.21
2023-05-20T06:25:26.145Z,23.22
2023-05-20T06:26:26.157Z,23.22
2023-05-20T06:27:26.147Z,23.23
2023-05-20T06:28:26.144Z,23.24
2023-05-20T06:29:26.152Z,23.25
2023-05-20T06:30:26.138Z,23.27
2023-05-20T06:31:26.188Z,23.26
2023-05-20T06:32:26.171Z,23.26
2023-05-20T06:33:26.181Z,23.25
2023-05-20T06:34:26.093Z,23.26
2023-05-20T06:35:26.107Z,23.26
2023-05-20T06:36:26.085Z,23.26
2023-05-20T06:37:26.093Z,23.27
2023-05-20T06:38:26.077Z,23.26
2023-05-20T06:39:26.073Z,23.28
2023-05-20T06:40:26.112Z,23.28
2023-05-20T06:41:26.046Z,23.29
2023-05-20T06:42:26.116Z,23.29
2023-05-20T06:43:26.048Z,23.30
2023-05-20T06:44:26.027Z,23.30
2023-05-20T06:45:26.020Z,23.31
2023-05-20T06:46:26.044Z,23.33
2023-05-20T06:47:26.137Z,23.34
2023-05-20T06:48:26.027Z,23.35
2023-05-20T06:49:26.018Z,23.35
2023-05-20T06:50:26.087Z,23.35
2023-05-20T06:51:26.031Z,23.35
2023-05-20T06:52:25.978Z,23.36
2023-05-20T06:53:26.024Z,23.36
2023-05-20T06:54:25.990Z,23.38
2023-05-20T06:55:26.021Z,23.39
2023-05-20T06:56:26.025Z,23.39
2023-05-20T06:57:26.069Z,23.38
2023-05-20T06:58:26.106Z,23.39
2023-05-20T06:59:26.133Z,23.38
2023-05-20T07:00:26.185Z,23.40
2023-05-20T07:01:26.224Z,23.42
2023-05-20T07:02:26.285Z,23.44
2023-05-20T07:03:26.308Z,23.45
2023-05-20T07:04:26.256Z,23.45
2023-05-20T07:05:26.292Z,23.45
2023-05-20T07:06:26.299Z,23.45
2023-05-20T07:07:26.338Z,23.45
2023-05-20T07:08:26.389Z,23.45
2023-05-20T07:09:26.375Z,23.45
2023-05-20T07:10:26.453Z,23.46
2023-05-20T07:11:26.419Z,23.46
2023-05-20T07:12:26.450Z,23.48
2023-05-20T07:13:26.505Z,23.52
2023-05-20T07:14:26.501Z,23.54
2023-05-20T07:15:26.500Z,23.54
2023-05-20T07:16:26.576Z,23.55
2023-05-20T07:17:26.586Z,23.55
2023-05-20T07:18:26.558Z,23.55
2023-05-20T07:19:26.662Z,23.54
2023-05-20T07:20:26.595Z,23.54
2023-05-20T07:21:26.611Z,23.54
2023-05-20T07:22:26.636Z,23.55
2023-05-20T07:23:26.684Z,23.57
2023-05-20T07:24:26.661Z,23.60
2023-05-20T07:25:26.656Z,23.62
2023-05-20T07:26:26.671Z,23.65
2023-05-20T07:27:26.684Z,23.67
2023-05-20T07:28:26.731Z,23.70
2023-05-20T07:29:26.702Z,23.72
2023-05-20T07:30:26.730Z,23.75
2023-05-20T07:31:26.824Z,23.76
2023-05-20T07:32:26.815Z,23.78
2023-05-20T07:33:26.800Z,23.79
2023-05-20T07:34:26.777Z,23.81
2023-05-20T07:35:26.808Z,23.82
2023-05-20T07:36:26.817Z,23.82
2023-05-20T07:37:26.819Z,23.82
2023-05-20T07:38:26.859Z,23.83
2023-05-20T07:39:26.887Z,23.84
2023-05-20T07:40:26.873Z,23.86
2023-05-20T07:41:26.897Z,23.88
2023-05-20T07:42:26.933Z,23.90
2023-05-20T07:43:26.949Z,23.92
2023-05-20T07:44:26.956Z,23.92
2023-05-20T07:45:26.971Z,23.93
2023-05-20T07:46:27.013Z,23.94
2023-05-20T07:47:27.111Z,23.97
2023-05-20T07:48:27.016Z,24.00
2023-05-20T07:49:26.997Z,24.03
2023-05-20T07:50:27.016Z,24.05
2023-05-20T07:51:27.025Z,24.06
2023-05-20T07:52:27.018Z,24.08
2023-05-20T07:53:27.022Z,24.10
2023-05-20T07:54:27.040Z,24.10
2023-05-20T07:55:27.040Z,24.11
2023-05-20T07:56:27.058Z,24.10
2023-05-20T07:57:27.043Z,24.09
2023-05-20T07:58:27.033Z,24.09
2023-05-20T07:59:27.054Z,24.09
2023-05-20T08:00:27.037Z,24.10
2023-05-20T08:01:27.036Z,24.10
2023-05-20T08:02:27.158Z,24.10
2023-05-20T08:03:27.256Z,24.10
2023-05-20T08:04:27.745Z,24.10
2023-05-20T08:05:27.036Z,24.10
2023-05-20T08:06:29.565Z,24.11
2023-05-20T08:07:27.032Z,24.13
2023-05-20T08:08:27.072Z,24.15
2023-05-20T08:09:27.041Z,24.18
2023-05-20T08:10:27.043Z,24.21
2023-05-20T08:11:27.025Z,24.22
2023-05-20T08:12:27.015Z,24.24
2023-05-20T08:13:27.018Z,24.24
2023-05-20T08:14:27.008Z,24.24
2023-05-20T08:15:27.000Z,24.24
2023-05-20T08:16:27.038Z,24.22
2023-05-20T08:17:27.021Z,24.21
2023-05-20T08:18:27.010Z,24.21
2023-05-20T08:19:27.013Z,24.21
2023-05-20T08:20:26.971Z,24.23
2023-05-20T08:21:26.956Z,24.24
2023-05-20T08:22:26.953Z,24.24
2023-05-20T08:23:26.981Z,24.23
2023-05-20T08:24:26.922Z,24.24
2023-05-20T08:25:26.922Z,24.25
2023-05-20T08:26:26.941Z,24.26
2023-05-20T08:27:26.909Z,24.28
2023-05-20T08:28:26.916Z,24.29
2023-05-20T08:29:26.919Z,24.30
2023-05-20T08:30:26.897Z,24.31
2023-05-20T08:31:26.961Z,24.33
2023-05-20T08:32:26.944Z,24.35
2023-05-20T08:33:26.914Z,24.37
2023-05-20T08:34:26.886Z,24.39
2023-05-20T08:35:26.856Z,24.40
2023-05-20T08:36:26.862Z,24.41
2023-05-20T08:37:26.873Z,24.42
2023-05-20T08:38:26.864Z,24.41
2023-05-20T08:39:26.834Z,24.43
2023-05-20T08:40:26.827Z,24.45
2023-05-20T08:41:26.866Z,24.46
2023-05-20T08:42:26.823Z,24.48
2023-05-20T08:43:26.835Z,24.50
2023-05-20T08:44:26.812Z,24.51
2023-05-20T08:45:26.799Z,24.52
2023-05-20T08:46:26.854Z,24.53
2023-05-20T08:47:26.824Z,24.53
2023-05-20T08:48:26.824Z,24.53
2023-05-20T08:49:26.800Z,24.54
2023-05-20T08:50:26.774Z,24.56
2023-05-20T08:51:26.777Z,24.56
2023-05-20T08:52:26.796Z,24.57
2023-05-20T08:53:26.776Z,24.59
2023-05-20T08:54:26.770Z,24.59
2023-05-20T08:55:26.766Z,24.59
2023-05-20T08:56:27.702Z,24.60
2023-05-20T08:57:26.913Z,24.61
2023-05-20T08:58:26.968Z,24.62
2023-05-20T08:59:27.025Z,24.63
2023-05-20T09:00:27.117Z,24.64
2023-05-20T09:01:27.190Z,24.65
2023-05-20T09:02:27.241Z,24.65
2023-05-20T09:03:27.267Z,24.66
2023-05-20T09:04:27.334Z,24.66
2023-05-20T09:05:27.429Z,24.67
2023-05-20T09:06:27.457Z,24.67
2023-05-20T09:07:27.519Z,24.68
2023-05-20T09:08:27.600Z,24.70
2023-05-20T09:09:27.629Z,24.72
2023-05-20T09:10:27.671Z,24.72
2023-05-20T09:11:27.725Z,24.74
2023-05-20T09:12:27.797Z,24.74
2023-05-20T09:13:27.849Z,24.74
2023-05-20T09:14:27.893Z,24.74
2023-05-20T09:15:27.944Z,24.75
2023-05-20T09:16:28.005Z,24.77
2023-05-20T09:17:28.137Z,24.78
2023-05-20T09:18:28.103Z,24.80
2023-05-20T09:19:28.214Z,24.82
2023-05-20T09:20:28.215Z,24.82
2023-05-20T09:21:28.282Z,24.83
2023-05-20T09:22:28.324Z,24.84
2023-05-20T09:23:28.375Z,24.85
2023-05-20T09:24:28.423Z,24.85
2023-05-20T09:25:28.448Z,24.85
2023-05-20T09:26:28.508Z,24.86
2023-05-20T09:27:28.548Z,24.88
2023-05-20T09:28:28.610Z,24.88
2023-05-20T09:29:28.662Z,24.89
2023-05-20T09:30:28.706Z,24.89
2023-05-20T09:31:28.762Z,24.89
2023-05-20T09:32:28.816Z,24.89
2023-05-20T09:33:28.813Z,24.90
2023-05-20T09:34:28.859Z,24.90
2023-05-20T09:35:28.922Z,24.91
2023-05-20T09:36:28.955Z,24.91
2023-05-20T09:37:29.002Z,24.92
2023-05-20T09:38:29.027Z,24.92
2023-05-20T09:39:29.087Z,24.92
2023-05-20T09:40:29.125Z,24.93
2023-05-20T09:41:29.156Z,24.93
2023-05-20T09:42:29.215Z,24.95
2023-05-20T09:43:29.247Z,24.96
2023-05-20T09:44:29.285Z,24.97
2023-05-20T09:45:29.337Z,24.98
2023-05-20T09:46:29.391Z,24.97
2023-05-20T09:47:29.406Z,24.96
2023-05-20T09:48:30.159Z,24.96
2023-05-20T09:49:29.440Z,24.95
2023-05-20T09:50:29.452Z,24.94
2023-05-20T09:51:29.427Z,24.96
2023-05-20T09:52:29.434Z,24.96
2023-05-20T09:53:29.458Z,24.95
2023-05-20T09:54:29.432Z,24.96
2023-05-20T09:55:29.410Z,24.98
2023-05-20T09:56:29.410Z,24.99
2023-05-20T09:57:29.401Z,24.99
2023-05-20T09:58:29.431Z,25.01
2023-05-20T09:59:29.393Z,25.02
2023-05-20T10:00:29.385Z,25.03
2023-05-20T10:01:29.417Z,25.04
2023-05-20T10:02:29.382Z,25.05
2023-05-20T10:03:29.525Z,25.06
2023-05-20T10:04:29.347Z,25.07
2023-05-20T10:05:29.356Z,25.07
2023-05-20T10:06:29.358Z,25.08
2023-05-20T10:07:41.149Z,25.08
2023-05-20T10:08:30.338Z,25.08
2023-05-20T10:09:29.329Z,25.09
2023-05-20T10:10:29.314Z,25.10
2023-05-20T10:11:29.309Z,25.10
2023-05-20T10:12:29.288Z,25.09
2023-05-20T10:13:29.329Z,25.09
2023-05-20T10:14:29.280Z,25.11
2023-05-20T10:15:29.312Z,25.12
2023-05-20T10:16:29.306Z,25.13
2023-05-20T10:17:29.303Z,25.14
2023-05-20T10:18:29.270Z,25.13
2023-05-20T10:19:29.305Z,25.14
2023-05-20T10:20:29.260Z,25.16
2023-05-20T10:21:29.232Z,25.17
2023-05-20T10:22:29.261Z,25.18
2023-05-20T10:23:29.247Z,25.19
2023-05-20T10:24:29.230Z,25.19
2023-05-20T10:25:29.252Z,25.19
2023-05-20T10:26:29.279Z,25.18
2023-05-20T10:27:29.307Z,25.18
2023-05-20T10:28:29.335Z,25.17
2023-05-20T10:29:29.372Z,25.17
2023-05-20T10:30:29.384Z,25.17
2023-05-20T10:31:29.401Z,25.16
2023-05-20T10:32:29.541Z,25.15
2023-05-20T10:33:29.572Z,25.15
2023-05-20T10:34:29.544Z,25.16
2023-05-20T10:35:29.546Z,25.16
2023-05-20T10:36:29.538Z,25.16
2023-05-20T10:37:29.565Z,25.16
2023-05-20T10:38:29.595Z,25.17
2023-05-20T10:39:29.622Z,25.16
2023-05-20T10:40:29.637Z,25.15
2023-05-20T10:41:29.662Z,25.14
2023-05-20T10:42:29.684Z,25.13
2023-05-20T10:43:29.710Z,25.13
2023-05-20T10:44:29.775Z,25.12
2023-05-20T10:45:29.811Z,25.11
2023-05-20T10:46:38.057Z,25.11
2023-05-20T10:47:30.873Z,25.10
2023-05-20T10:48:29.970Z,25.11
2023-05-20T10:49:29.836Z,25.11
2023-05-20T10:50:29.833Z,25.11
2023-05-20T10:51:29.789Z,25.10
2023-05-20T10:52:29.778Z,25.10
2023-05-20T10:53:33.906Z,25.09
2023-05-20T10:54:29.776Z,25.09
2023-05-20T10:55:29.755Z,25.10
2023-05-20T10:56:29.747Z,25.11
2023-05-20T10:57:29.744Z,25.11
2023-05-20T10:58:29.732Z,25.10
2023-05-20T10:59:29.743Z,25.10
2023-05-20T11:00:29.725Z,25.10
2023-05-20T11:01:29.771Z,25.09
2023-05-20T11:02:29.814Z,25.09
2023-05-20T11:03:29.795Z,25.08
2023-05-20T11:04:29.694Z,25.09
2023-05-20T11:05:29.694Z,25.09
2023-05-20T11:06:29.683Z,25.09
2023-05-20T11:07:29.671Z,25.08
2023-05-20T11:08:29.821Z,25.09
2023-05-20T11:09:29.664Z,25.10
2023-05-20T11:10:29.670Z,25.09
2023-05-20T11:11:29.678Z,25.11
2023-05-20T11:12:29.644Z,25.10
2023-05-20T11:13:29.642Z,25.10
2023-05-20T11:14:29.665Z,25.09
2023-05-20T11:15:29.640Z,25.10
2023-05-20T11:16:29.733Z,25.09
2023-05-20T11:17:29.766Z,25.08
2023-05-20T11:18:29.726Z,25.08
2023-05-20T11:19:29.856Z,25.07
2023-05-20T11:20:29.785Z,25.07
2023-05-20T11:21:29.812Z,25.07
2023-05-20T11:22:29.855Z,25.06
2023-05-20T11:23:29.892Z,25.05
2023-05-20T11:24:29.906Z,25.04
2023-05-20T11:25:29.966Z,25.04
2023-05-20T11:26:29.994Z,25.04
2023-05-20T11:27:30.017Z,25.04
2023-05-20T11:28:30.070Z,25.03
2023-05-20T11:29:30.103Z,25.02
2023-05-20T11:30:30.132Z,25.03
2023-05-20T11:31:30.181Z,25.02
2023-05-20T11:32:30.255Z,25.02
2023-05-20T11:33:30.234Z,25.01
2023-05-20T11:34:31.902Z,25.01
2023-05-20T11:35:30.318Z,25.01
2023-05-20T11:36:30.382Z,25.01
2023-05-20T11:37:30.399Z,24.99
2023-05-20T11:38:30.416Z,25.00
2023-05-20T11:39:30.514Z,24.98
2023-05-20T11:40:38.911Z,24.99
2023-05-20T11:41:31.512Z,24.98
2023-05-20T11:42:30.499Z,24.97
2023-05-20T11:43:30.492Z,24.97
2023-05-20T11:44:30.478Z,24.96
2023-05-20T11:45:30.472Z,24.96
2023-05-20T11:46:30.516Z,24.96
2023-05-20T11:47:30.477Z,24.96
2023-05-20T11:48:30.449Z,24.95
2023-05-20T11:49:30.438Z,24.96
2023-05-20T11:50:30.436Z,24.95
2023-05-20T11:51:30.444Z,24.95
2023-05-20T11:52:30.434Z,24.93
2023-05-20T11:53:30.418Z,24.94
2023-05-20T11:54:30.427Z,24.95
2023-05-20T11:55:30.438Z,24.94
2023-05-20T11:56:30.478Z,24.94
2023-05-20T11:57:30.489Z,24.93
2023-05-20T11:58:30.499Z,24.93
2023-05-20T11:59:30.530Z,24.92
2023-05-20T12:00:36.355Z,24.92
2023-05-20T12:01:31.572Z,24.92
2023-05-20T12:02:30.650Z,24.92
2023-05-20T12:03:30.658Z,24.93
2023-05-20T12:04:30.548Z,24.92
2023-05-20T12:05:30.552Z,24.92
2023-05-20T12:06:30.535Z,24.92
2023-05-20T12:07:30.517Z,24.91
2023-05-20T12:08:30.505Z,24.91
2023-05-20T12:09:30.525Z,24.90
2023-05-20T12:10:30.513Z,24.90
2023-05-20T12:11:30.508Z,24.90
2023-05-20T12:12:30.506Z,24.88
2023-05-20T12:13:30.481Z,24.88
2023-05-20T12:14:30.497Z,24.87
2023-05-20T12:15:30.468Z,24.87
2023-05-20T12:16:30.586Z,24.87
2023-05-20T12:17:30.487Z,24.87
2023-05-20T12:18:30.489Z,24.87
2023-05-20T12:19:30.657Z,24.87
2023-05-20T12:20:30.570Z,24.86
2023-05-20T12:21:30.636Z,24.85
2023-05-20T12:22:30.657Z,24.86
2023-05-20T12:23:30.706Z,24.85
2023-05-20T12:24:30.748Z,24.86
2023-05-20T12:25:30.782Z,24.86
2023-05-20T12:26:30.830Z,24.85
2023-05-20T12:27:30.904Z,24.85
2023-05-20T12:28:30.941Z,24.85
2023-05-20T12:29:30.987Z,24.85
2023-05-20T12:30:31.017Z,24.84
2023-05-20T12:31:33.806Z,24.84
2023-05-20T12:32:31.137Z,24.83
2023-05-20T12:33:31.058Z,24.82
2023-05-20T12:34:31.030Z,24.82
2023-05-20T12:35:31.021Z,24.82
2023-05-20T12:36:31.032Z,24.80
2023-05-20T12:37:31.006Z,24.81
2023-05-20T12:38:31.001Z,24.80
2023-05-20T12:39:31.000Z,24.78
2023-05-20T12:40:30.996Z,24.79
2023-05-20T12:41:31.005Z,24.79
2023-05-20T12:42:30.973Z,24.78
2023-05-20T12:43:30.979Z,24.77
2023-05-20T12:44:30.963Z,24.77
2023-05-20T12:45:30.950Z,24.77
2023-05-20T12:46:30.973Z,24.77
2023-05-20T12:47:30.981Z,24.76
2023-05-20T12:48:30.940Z,24.76
2023-05-20T12:49:30.950Z,24.76
2023-05-20T12:50:30.948Z,24.76
2023-05-20T12:51:30.916Z,24.76
2023-05-20T12:52:30.979Z,24.77